createdAt,value
2023-11-24T00:02:56.825Z,79.59
2023-11-24T00:07:58.424Z,79.52
2023-11-24T00:13:03.080Z,79.74
2023-11-24T00:18:04.538Z,79.40
2023-11-24T00:23:05.929Z,79.64
2023-11-24T00:28:07.377Z,79.77
2023-11-24T00:33:08.896Z,80.08
2023-11-24T00:38:10.303Z,79.99
2023-11-24T00:43:11.799Z,79.61
2023-11-24T00:48:13.280Z,79.81
2023-11-24T00:53:14.729Z,79.75
2023-11-24T00:58:16.164Z,79.70
2023-11-24T01:03:17.540Z,79.69
2023-11-24T01:08:18.917Z,79.65
2023-11-24T01:13:20.271Z,79.61
2023-11-24T01:18:22.423Z,80.09
2023-11-24T01:23:24.231Z,79.96
2023-11-24T01:28:26.638Z,80.05
2023-11-24T01:33:28.144Z,80.28
2023-11-24T01:38:29.596Z,80.48
2023-11-24T01:43:31.000Z,80.33
2023-11-24T01:48:32.657Z,81.00
2023-11-24T01:53:34.913Z,80.80
2023-11-24T01:58:36.328Z,80.52
2023-11-24T02:03:37.805Z,80.13
2023-11-24T02:08:39.908Z,79.61
2023-11-24T02:13:41.290Z,79.59
2023-11-24T02:18:42.981Z,79.47
2023-11-24T02:23:44.566Z,78.86
2023-11-24T02:28:46.049Z,78.93
2023-11-24T02:33:51.074Z,78.64
2023-11-24T02:38:53.054Z,78.05
2023-11-24T02:43:54.453Z,78.13
2023-11-24T02:48:55.950Z,77.65
2023-11-24T02:53:57.588Z,77.58
2023-11-24T02:58:59.018Z,77.20
2023-11-24T03:04:00.530Z,76.98
2023-11-24T03:09:07.183Z,76.99
2023-11-24T03:14:08.592Z,76.73
2023-11-24T03:19:10.464Z,76.47
2023-11-24T03:24:11.885Z,76.73
2023-11-24T03:29:13.297Z,76.56
2023-11-24T03:34:14.803Z,75.81
2023-11-24T03:39:16.491Z,74.83
2023-11-24T03:44:17.919Z,73.36
2023-11-24T03:49:19.412Z,71.67
2023-11-24T03:54:22.986Z,71.05
2023-11-24T03:59:24.409Z,71.16
2023-11-24T04:04:25.929Z,71.23
2023-11-24T04:09:27.394Z,70.87
2023-11-24T04:14:28.784Z,71.03
2023-11-24T04:19:30.160Z,70.88
2023-11-24T04:24:31.562Z,70.77
2023-11-24T04:29:32.926Z,70.86
2023-11-24T04:34:34.424Z,70.77
2023-11-24T04:39:36.168Z,70.07
2023-11-24T04:44:37.764Z,69.54
2023-11-24T04:49:39.233Z,69.52
2023-11-24T04:54:40.813Z,69.41
2023-11-24T04:59:42.219Z,69.45
2023-11-24T05:04:43.672Z,69.79
2023-11-24T05:09:46.568Z,69.49
2023-11-24T05:14:48.014Z,69.28
2023-11-24T05:19:49.405Z,69.22
2023-11-24T05:24:50.869Z,69.29
2023-11-24T05:29:52.308Z,69.56
2023-11-24T05:34:54.819Z,69.68
2023-11-24T05:39:56.352Z,69.49
2023-11-24T05:44:57.850Z,69.79
2023-11-24T05:49:59.296Z,69.86
2023-11-24T05:55:05.053Z,69.84
2023-11-24T06:00:09.713Z,70.26
2023-11-24T06:05:11.900Z,70.33
2023-11-24T06:10:13.499Z,70.56
2023-11-24T06:15:15.154Z,70.52
2023-11-24T06:20:19.318Z,70.53
2023-11-24T06:25:20.763Z,70.76
2023-11-24T06:30:22.400Z,70.50
2023-11-24T06:35:23.936Z,71.01
2023-11-24T06:40:25.635Z,71.07
2023-11-24T06:45:27.028Z,70.94
2023-11-24T06:50:29.225Z,70.97
2023-11-24T06:55:31.812Z,70.92
2023-11-24T07:00:33.957Z,71.21
2023-11-24T07:05:36.796Z,71.06
2023-11-24T07:10:38.621Z,71.13
2023-11-24T07:15:40.218Z,70.77
2023-11-24T07:20:41.708Z,70.24
2023-11-24T07:25:44.258Z,70.03
2023-11-24T07:30:47.237Z,69.54
2023-11-24T07:35:48.764Z,69.18
2023-11-24T07:40:50.140Z,68.78
2023-11-24T07:45:53.252Z,68.40
2023-11-24T07:50:54.837Z,67.82
2023-11-24T07:55:56.337Z,67.67
2023-11-24T08:00:57.823Z,67.50
2023-11-24T08:06:07.437Z,67.01
2023-11-24T08:11:10.021Z,66.66
2023-11-24T08:16:12.814Z,67.10
2023-11-24T08:21:14.581Z,67.33
2023-11-24T08:26:18.539Z,67.15
2023-11-24T08:31:21.505Z,67.46
2023-11-24T08:36:26.493Z,67.84
2023-11-24T08:41:35.434Z,67.83
2023-11-24T08:46:43.541Z,67.72
2023-11-24T08:51:45.132Z,67.76
2023-11-24T08:56:46.502Z,68.16
2023-11-24T09:01:51.133Z,68.21
2023-11-24T09:06:52.662Z,68.38
2023-11-24T09:11:54.078Z,68.24
2023-11-24T09:16:57.601Z,68.27
2023-11-24T09:22:04.623Z,68.56
2023-11-24T09:27:06.181Z,67.91
2023-11-24T09:32:08.014Z,69.22
2023-11-24T09:37:10.669Z,70.21
2023-11-24T09:42:18.313Z,70.46
2023-11-24T09:47:21.491Z,70.80
2023-11-24T09:52:25.156Z,70.43
2023-11-24T09:57:26.750Z,70.22
2023-11-24T10:02:29.002Z,70.74
2023-11-24T10:07:30.627Z,71.99
2023-11-24T10:12:32.164Z,72.25
2023-11-24T10:17:35.243Z,73.12
2023-11-24T10:22:36.925Z,72.53
2023-11-24T10:27:41.382Z,72.14
2023-11-24T10:32:44.764Z,72.39
2023-11-24T10:37:46.506Z,71.58
2023-11-24T10:42:49.792Z,70.61
2023-11-24T10:48:16.064Z,70.22
2023-11-24T10:53:35.699Z,68.02
2023-11-24T10:58:37.529Z,67.44
2023-11-24T11:03:39.973Z,66.18
2023-11-24T11:08:57.280Z,65.65
2023-11-24T11:13:59.979Z,65.11
2023-11-24T11:19:33.955Z,64.24
2023-11-24T11:24:35.516Z,64.66
2023-11-24T11:29:37.340Z,64.52
2023-11-24T11:34:38.754Z,64.07
2023-11-24T11:39:55.458Z,64.11
2023-11-24T11:44:59.935Z,63.76
2023-11-24T11:50:06.323Z,63.71
2023-11-24T11:55:08.069Z,62.37
2023-11-24T12:00:10.773Z,61.04
2023-11-24T12:05:15.902Z,61.21
2023-11-24T12:10:17.299Z,61.55
2023-11-24T12:15:19.066Z,61.07
2023-11-24T12:20:20.965Z,61.38
2023-11-24T12:25:22.868Z,61.43
2023-11-24T12:30:24.428Z,62.95
2023-11-24T12:35:28.664Z,62.94
2023-11-24T12:40:33.714Z,62.85
2023-11-24T12:45:36.709Z,63.67
2023-11-24T12:50:42.031Z,63.41
2023-11-24T12:55:43.483Z,62.55
2023-11-24T13:00:45.230Z,62.87
2023-11-24T13:05:47.236Z,62.69
2023-11-24T13:10:49.752Z,62.63
2023-11-24T13:15:52.260Z,62.53
2023-11-24T13:20:53.720Z,62.89
2023-11-24T13:25:55.102Z,61.99
2023-11-24T13:30:56.924Z,62.44
2023-11-24T13:35:58.666Z,62.43
2023-11-24T13:41:00.057Z,61.71
2023-11-24T13:46:03.228Z,61.90
2023-11-24T13:51:07.695Z,60.33
2023-11-24T13:56:09.620Z,60.35
2023-11-24T14:01:11.351Z,64.17
2023-11-24T14:06:14.604Z,67.54
2023-11-24T14:11:16.700Z,67.38
2023-11-24T14:16:18.144Z,68.07
2023-11-24T14:21:20.375Z,68.44
2023-11-24T14:26:21.764Z,69.92
2023-11-24T14:31:23.501Z,69.55
2023-11-24T14:36:25.039Z,70.22
2023-11-24T14:41:26.980Z,70.35
2023-11-24T14:46:32.353Z,69.45
2023-11-24T14:51:37.082Z,69.67
2023-11-24T14:56:41.031Z,70.13
2023-11-24T15:01:44.011Z,70.17
2023-11-24T15:06:50.749Z,70.85
2023-11-24T15:11:53.664Z,70.36
2023-11-24T15:16:58.951Z,70.01
2023-11-24T15:22:21.347Z,69.19
2023-11-24T15:27:22.827Z,68.73
2023-11-24T15:32:24.916Z,67.44
2023-11-24T15:37:26.901Z,67.32
2023-11-24T15:42:30.336Z,68.21
2023-11-24T15:47:31.939Z,66.88
2023-11-24T15:52:34.856Z,67.29
2023-11-24T15:57:36.254Z,67.74
2023-11-24T16:02:38.813Z,67.20
2023-11-24T16:07:40.267Z,66.60
2023-11-24T16:12:45.784Z,66.54
2023-11-24T16:17:48.512Z,66.60
2023-11-24T16:22:50.305Z,67.42
2023-11-24T16:27:51.735Z,69.30
2023-11-24T16:32:53.148Z,71.61
2023-11-24T16:37:54.731Z,72.39
2023-11-24T16:42:56.184Z,72.88
2023-11-24T16:47:57.687Z,72.66
2023-11-24T16:52:59.108Z,73.24
2023-11-24T16:58:00.531Z,73.42
2023-11-24T17:03:01.970Z,72.86
2023-11-24T17:08:07.880Z,73.48
2023-11-24T17:13:09.674Z,73.57
2023-11-24T17:18:11.118Z,74.03
2023-11-24T17:23:17.157Z,75.20
2023-11-24T17:28:18.675Z,74.62
2023-11-24T17:33:20.162Z,74.66
2023-11-24T17:38:22.372Z,74.83
2023-11-24T17:43:23.819Z,74.58
2023-11-24T17:48:25.268Z,73.68
2023-11-24T17:53:26.709Z,73.26
2023-11-24T17:58:28.387Z,72.42
2023-11-24T18:03:30.156Z,71.81
2023-11-24T18:08:34.820Z,72.19
2023-11-24T18:13:36.559Z,72.44
2023-11-24T18:18:41.053Z,72.31
2023-11-24T18:23:43.404Z,72.23
2023-11-24T18:28:47.869Z,71.41
2023-11-24T18:33:49.261Z,70.66
2023-11-24T18:38:50.646Z,71.20
2023-11-24T18:43:52.424Z,70.34
2023-11-24T18:48:53.990Z,70.35
2023-11-24T18:53:56.608Z,70.35
2023-11-24T18:58:58.015Z,69.90
2023-11-24T19:03:59.516Z,69.08
2023-11-24T19:09:01.066Z,69.65
2023-11-24T19:14:02.843Z,69.33
2023-11-24T19:19:04.290Z,69.03
2023-11-24T19:24:06.726Z,68.55
2023-11-24T19:29:11.622Z,68.51
2023-11-24T19:34:13.858Z,67.56
2023-11-24T19:39:15.387Z,67.71
2023-11-24T19:44:16.744Z,67.72
2023-11-24T19:49:18.166Z,68.37
2023-11-24T19:54:19.561Z,68.58
2023-11-24T19:59:20.977Z,68.35
2023-11-24T20:04:22.461Z,68.42
2023-11-24T20:09:23.846Z,68.63
2023-11-24T20:14:25.229Z,68.89
2023-11-24T20:19:26.667Z,68.25
2023-11-24T20:24:28.145Z,68.77
2023-11-24T20:29:29.521Z,69.03
2023-11-24T20:34:32.220Z,69.25
2023-11-24T20:39:33.726Z,68.54
2023-11-24T20:44:36.555Z,68.97
2023-11-24T20:49:38.448Z,68.90
2023-11-24T20:54:40.405Z,68.77
2023-11-24T20:59:41.986Z,67.70
2023-11-24T21:04:43.466Z,68.95
2023-11-24T21:09:44.909Z,69.34
2023-11-24T21:14:46.925Z,69.58
2023-11-24T21:19:48.290Z,70.04
2023-11-24T21:24:52.533Z,69.62
2023-11-24T21:29:53.961Z,68.89
2023-11-24T21:34:55.451Z,68.85
2023-11-24T21:40:01.649Z,69.13
2023-11-24T21:45:04.232Z,69.35
2023-11-24T21:50:07.308Z,69.26
2023-11-24T21:55:10.176Z,69.12
2023-11-24T22:00:17.500Z,68.96
2023-11-24T22:05:19.052Z,68.97
2023-11-24T22:10:20.600Z,69.13
2023-11-24T22:15:22.028Z,69.04
2023-11-24T22:20:23.410Z,68.32
2023-11-24T22:25:24.990Z,68.22
2023-11-24T22:30:26.588Z,68.20
2023-11-24T22:35:28.410Z,67.65
2023-11-24T22:40:29.974Z,68.19
2023-11-24T22:45:33.123Z,67.60
2023-11-24T22:50:34.812Z,67.83
2023-11-24T22:55:36.900Z,68.34
2023-11-24T23:00:41.536Z,69.02
2023-11-24T23:05:47.381Z,68.90
2023-11-24T23:10:49.186Z,69.28
2023-11-24T23:15:51.703Z,69.31
2023-11-24T23:20:53.429Z,68.98
2023-11-24T23:25:54.959Z,69.13
2023-11-24T23:30:56.586Z,69.06
2023-11-24T23:36:01.011Z,69.27
2023-11-24T23:41:02.898Z,69.05
2023-11-24T23:46:06.402Z,68.68
2023-11-24T23:51:08.412Z,68.60
2023-11-24T23:56:10.644Z,68.66
